Time;durP1;ratioP1;P1;durP2;ratioP2;P2;SDS_P1;SDS_P2;PMS_P1;PMS_P2;Temp;Humidity;BMP_temperature;BMP_pressure;BME280_temperature;BME280_humidity;BME280_pressure;Samples;Min_cycle;Max_cycle;Signal;HPM_P1;HPM_P2
2022/05/30 00:04:28;;;;;;;5.88;1.45;;;9.30;99.90;;;;;;12199195;29;20087;-83
2022/05/30 00:10:30;;;;;;;10.25;1.67;;;9.40;99.90;;;;;;12195538;29;20463;-83
2022/05/30 00:16:33;;;;;;;8.63;1.45;;;9.50;99.90;;;;;;12197703;29;20445;-83
2022/05/30 00:22:35;;;;;;;6.57;1.38;;;9.50;99.90;;;;;;12183541;29;20135;-83
2022/05/30 00:28:37;;;;;;;6.93;1.67;;;9.50;99.90;;;;;;12165355;29;20424;-83
2022/05/30 00:34:39;;;;;;;10.88;1.60;;;9.60;99.90;;;;;;12188216;29;20187;-83
2022/05/30 00:40:42;;;;;;;7.18;1.50;;;9.50;99.90;;;;;;12206583;29;20508;-83
2022/05/30 00:46:44;;;;;;;5.63;1.40;;;9.50;99.90;;;;;;12186898;29;20080;-84
2022/05/30 00:52:46;;;;;;;7.30;1.77;;;9.50;99.90;;;;;;12189730;29;20111;-83
2022/05/30 00:58:50;;;;;;;7.63;1.92;;;9.40;99.90;;;;;;12200719;29;20188;-83
2022/05/30 01:11:12;;;;;;;9.98;2.00;;;9.50;99.90;;;;;;12205911;29;20051;-83
2022/05/30 01:17:16;;;;;;;10.00;1.65;;;9.50;99.90;;;;;;12201764;29;20127;-83
2022/05/30 01:23:29;;;;;;;6.90;1.77;;;9.40;99.90;;;;;;12209665;29;20055;-83
2022/05/30 01:30:00;;;;;;;6.65;1.92;;;9.30;99.90;;;;;;12190387;29;20198;-83
2022/05/30 01:36:02;;;;;;;8.35;2.03;;;9.20;99.90;;;;;;12192586;29;20187;-83
2022/05/30 01:42:05;;;;;;;7.88;1.75;;;9.30;99.90;;;;;;12182176;29;20431;-83
2022/05/30 01:48:08;;;;;;;8.55;1.95;;;9.30;99.90;;;;;;12184143;29;20064;-83
2022/05/30 01:54:10;;;;;;;8.23;2.13;;;9.10;99.90;;;;;;12186727;29;20052;-83
2022/05/30 02:00:13;;;;;;;9.60;2.10;;;9.10;99.90;;;;;;12190037;29;20056;-83
2022/05/30 02:06:15;;;;;;;7.55;2.03;;;9.10;99.90;;;;;;12188935;29;20083;-83
2022/05/30 02:12:18;;;;;;;8.38;1.90;;;9.10;99.90;;;;;;12185022;29;20428;-82
2022/05/30 02:18:20;;;;;;;9.90;2.42;;;9.10;99.90;;;;;;12199834;29;20188;-83
2022/05/30 02:24:21;;;;;;;8.55;2.30;;;9.10;99.90;;;;;;12203699;29;20056;-83
2022/05/30 02:30:23;;;;;;;10.32;2.45;;;9.10;99.90;;;;;;12205211;29;20052;-82
2022/05/30 02:36:40;;;;;;;7.95;2.60;;;8.90;99.90;;;;;;12200065;29;20172;-82
2022/05/30 02:42:42;;;;;;;13.48;2.83;;;8.90;99.90;;;;;;12202837;29;20068;-83
2022/05/30 02:48:44;;;;;;;9.77;2.78;;;8.90;99.90;;;;;;12185718;29;20057;-82
2022/05/30 02:54:46;;;;;;;10.27;2.78;;;8.80;99.90;;;;;;12195911;29;20138;-82
2022/05/30 03:00:48;;;;;;;8.45;3.10;;;8.90;99.90;;;;;;12242993;29;20081;-85
2022/05/30 03:06:49;;;;;;;7.85;2.75;;;8.90;99.90;;;;;;12215495;29;20480;-82
2022/05/30 03:12:51;;;;;;;14.45;3.13;;;8.80;99.90;;;;;;12183557;29;20052;-83
2022/05/30 03:18:54;;;;;;;13.13;2.88;;;8.70;99.90;;;;;;12169742;29;20227;-83
2022/05/30 03:24:55;;;;;;;11.35;3.17;;;8.60;99.90;;;;;;12186874;29;20056;-82
2022/05/30 03:30:59;;;;;;;9.30;2.97;;;8.50;99.90;;;;;;12191828;29;20192;-83
2022/05/30 03:37:01;;;;;;;10.93;3.00;;;8.60;99.90;;;;;;12189441;29;20547;-83
2022/05/30 03:43:09;;;;;;;9.80;3.28;;;8.60;99.90;;;;;;12205175;29;20089;-82
2022/05/30 03:49:11;;;;;;;10.93;3.83;;;8.60;99.90;;;;;;12206410;29;20527;-83
2022/05/30 03:55:15;;;;;;;10.18;3.75;;;8.60;99.90;;;;;;12181238;29;20056;-83
2022/05/30 04:01:18;;;;;;;10.93;3.65;;;8.60;99.90;;;;;;12194508;29;20568;-83
2022/05/30 04:07:20;;;;;;;12.20;3.25;;;8.60;99.90;;;;;;12202729;29;20060;-82
2022/05/30 04:13:22;;;;;;;14.63;3.45;;;8.70;99.90;;;;;;12185011;29;20142;-83
2022/05/30 04:19:23;;;;;;;7.30;3.35;;;8.90;99.90;;;;;;12188186;29;20496;-82
2022/05/30 04:25:26;;;;;;;11.27;3.55;;;9.00;99.90;;;;;;12198460;29;20137;-83
2022/05/30 04:31:28;;;;;;;8.63;2.90;;;8.70;99.90;;;;;;12200594;29;20187;-83
2022/05/30 04:37:30;;;;;;;9.93;3.40;;;8.70;99.90;;;;;;12218304;29;20139;-84
2022/05/30 04:43:32;;;;;;;12.52;3.90;;;8.70;99.90;;;;;;12190773;29;20143;-83
2022/05/30 04:49:34;;;;;;;13.48;3.78;;;8.70;99.90;;;;;;12210112;29;20416;-84
2022/05/30 04:55:35;;;;;;;10.77;3.10;;;8.80;99.90;;;;;;12208385;29;20111;-83
2022/05/30 05:01:38;;;;;;;10.32;2.97;;;8.90;99.90;;;;;;12215789;29;20496;-83
2022/05/30 05:07:48;;;;;;;12.23;3.80;;;8.80;99.90;;;;;;12182109;29;20143;-83
2022/05/30 05:13:51;;;;;;;7.35;3.42;;;8.80;99.90;;;;;;12187483;29;20526;-84
2022/05/30 05:19:52;;;;;;;10.70;3.47;;;8.90;99.90;;;;;;12197133;29;20061;-83
2022/05/30 05:25:54;;;;;;;15.70;4.00;;;8.80;99.90;;;;;;12186184;29;20048;-84
2022/05/30 05:31:57;;;;;;;11.93;3.72;;;8.90;99.90;;;;;;12188971;29;20492;-84
2022/05/30 05:38:00;;;;;;;12.73;4.00;;;9.00;99.90;;;;;;12197378;29;20048;-83
2022/05/30 05:44:03;;;;;;;12.38;3.83;;;9.10;99.90;;;;;;12190312;29;20513;-84
2022/05/30 05:50:05;;;;;;;10.60;3.80;;;9.20;99.90;;;;;;12187482;29;20449;-85
2022/05/30 05:56:33;;;;;;;10.65;3.58;;;9.20;99.90;;;;;;12179469;29;20060;-84
2022/05/30 06:02:38;;;;;;;14.13;3.42;;;9.20;99.90;;;;;;12183133;29;20131;-83
2022/05/30 06:08:40;;;;;;;7.25;3.30;;;9.30;99.90;;;;;;12193648;29;20056;-84
2022/05/30 06:14:42;;;;;;;9.50;3.10;;;9.50;99.90;;;;;;12203488;29;20052;-85
2022/05/30 06:20:44;;;;;;;6.18;1.92;;;9.30;99.90;;;;;;12204460;29;20135;-84
2022/05/30 06:26:46;;;;;;;11.02;2.92;;;9.10;99.90;;;;;;12186608;29;20086;-85
2022/05/30 06:32:47;;;;;;;7.93;2.45;;;9.50;99.90;;;;;;12202547;29;20191;-84
2022/05/30 06:38:50;;;;;;;7.30;2.40;;;9.60;99.90;;;;;;12187006;29;20456;-84
2022/05/30 06:44:52;;;;;;;12.60;3.00;;;9.70;99.90;;;;;;12198103;29;20568;-85
2022/05/30 06:50:54;;;;;;;6.20;2.20;;;9.70;99.90;;;;;;12173162;29;20461;-85
2022/05/30 07:03:17;;;;;;;7.38;2.08;;;9.90;99.90;;;;;;12193372;29;20143;-84
2022/05/30 07:09:19;;;;;;;9.65;2.05;;;10.10;99.90;;;;;;12196680;29;20052;-83
2022/05/30 07:15:21;;;;;;;6.68;1.80;;;10.20;99.90;;;;;;12190513;29;20151;-85
2022/05/30 07:21:26;;;;;;;6.68;1.45;;;10.10;99.90;;;;;;12168313;29;20104;-84
2022/05/30 07:27:28;;;;;;;5.88;1.35;;;10.30;99.90;;;;;;12181552;29;20775;-84
2022/05/30 07:33:32;;;;;;;7.30;1.15;;;10.30;99.90;;;;;;12188515;29;20523;-84
2022/05/30 07:39:38;;;;;;;7.67;1.07;;;10.20;99.90;;;;;;12204581;29;21381;-84
2022/05/30 07:45:40;;;;;;;8.70;1.30;;;10.30;99.90;;;;;;12190988;29;20123;-84
2022/05/30 07:51:44;;;;;;;7.15;1.90;;;10.30;99.90;;;;;;12199734;29;20063;-84
2022/05/30 07:57:52;;;;;;;4.57;1.00;;;10.20;99.90;;;;;;12206294;29;20413;-84
2022/05/30 08:03:54;;;;;;;5.50;1.42;;;10.40;99.90;;;;;;12209141;29;20063;-84
2022/05/30 08:09:56;;;;;;;5.15;1.13;;;10.10;99.90;;;;;;12198852;29;20568;-85
2022/05/30 08:15:58;;;;;;;7.22;1.13;;;10.10;99.90;;;;;;12205109;29;20056;-84
2022/05/30 08:22:05;;;;;;;4.38;1.25;;;10.00;99.90;;;;;;12203311;29;20040;-85
2022/05/30 08:28:07;;;;;;;7.70;1.00;;;10.10;99.90;;;;;;12211536;29;20136;-84
2022/05/30 08:34:09;;;;;;;6.32;1.20;;;10.20;99.90;;;;;;12202511;29;20185;-84
2022/05/30 08:47:00;;;;;;;6.18;0.80;;;10.20;99.90;;;;;;12202398;29;20135;-84
2022/05/30 08:53:39;;;;;;;4.03;1.13;;;10.00;99.90;;;;;;12197247;29;20738;-84
2022/05/30 08:59:52;;;;;;;7.15;0.90;;;10.30;99.90;;;;;;12203219;29;20055;-84
2022/05/30 09:05:59;;;;;;;4.28;1.30;;;10.20;99.90;;;;;;12181190;29;20476;-84
2022/05/30 09:12:10;;;;;;;5.03;1.33;;;10.40;99.90;;;;;;12187203;29;20056;-85
2022/05/30 09:18:44;;;;;;;6.30;1.10;;;10.50;99.90;;;;;;12183222;29;20044;-85
2022/05/30 09:25:55;;;;;;;6.88;1.17;;;10.70;99.90;;;;;;12188066;29;20057;-84
2022/05/30 09:31:15;;;;;;;4.43;0.93;;;10.70;99.90;;;;;;12203593;29;20061;-84
2022/05/30 09:37:30;;;;;;;7.45;1.00;;;10.90;99.90;;;;;;12208732;29;20052;-85
2022/05/30 09:43:50;;;;;;;4.78;0.80;;;11.10;99.90;;;;;;12196696;29;20059;-84
2022/05/30 09:49:54;;;;;;;5.05;1.02;;;11.20;99.90;;;;;;12177426;29;20528;-85
2022/05/30 09:55:56;;;;;;;5.10;0.90;;;11.30;99.90;;;;;;12184078;29;20160;-84
2022/05/30 10:01:58;;;;;;;5.18;0.80;;;11.40;99.90;;;;;;12187644;29;20056;-83
2022/05/30 10:08:27;;;;;;;8.25;1.00;;;11.50;99.90;;;;;;12191398;29;20096;-85
2022/05/30 10:14:34;;;;;;;4.63;1.00;;;11.50;99.90;;;;;;12203210;29;20099;-84
2022/05/30 10:20:55;;;;;;;3.58;1.20;;;11.60;99.90;;;;;;12208168;29;20404;-85
2022/05/30 10:34:16;;;;;;;3.47;0.63;;;11.60;99.90;;;;;;12197815;29;20988;-85
2022/05/30 10:40:37;;;;;;;3.05;0.90;;;11.60;99.90;;;;;;12173191;29;20056;-85
2022/05/30 10:46:46;;;;;;;2.63;0.73;;;11.90;99.90;;;;;;12181832;29;20055;-84
2022/05/30 10:52:55;;;;;;;3.25;0.73;;;12.30;99.90;;;;;;12172767;29;20412;-85
2022/05/30 10:59:21;;;;;;;2.92;0.80;;;12.40;99.90;;;;;;12195987;29;20080;-85
2022/05/30 11:05:29;;;;;;;3.92;0.93;;;12.40;99.90;;;;;;12177237;29;20056;-83
2022/05/30 11:11:48;;;;;;;8.85;1.30;;;12.30;99.90;;;;;;12193913;29;20119;-84
2022/05/30 11:18:04;;;;;;;3.30;0.70;;;12.40;99.90;;;;;;12180818;29;20603;-84
2022/05/30 11:24:08;;;;;;;2.92;0.80;;;12.70;99.90;;;;;;12187369;29;20083;-85
2022/05/30 11:30:46;;;;;;;3.93;0.73;;;12.70;99.90;;;;;;12183762;29;20087;-84
2022/05/30 11:37:25;;;;;;;5.80;0.98;;;12.70;99.90;;;;;;12183707;29;20176;-85
2022/05/30 11:43:37;;;;;;;2.60;0.60;;;12.40;99.90;;;;;;12198909;29;20143;-84
2022/05/30 11:50:08;;;;;;;4.57;0.88;;;12.20;99.90;;;;;;12168112;29;20515;-84
2022/05/30 11:56:35;;;;;;;3.80;0.70;;;11.80;99.90;;;;;;12181933;29;20059;-85
2022/05/30 12:02:57;;;;;;;5.60;0.80;;;11.90;99.90;;;;;;12176918;29;20542;-84
2022/05/30 12:09:23;;;;;;;2.45;0.60;;;12.10;99.90;;;;;;12196782;29;20060;-84
2022/05/30 12:16:06;;;;;;;5.43;0.70;;;12.20;99.90;;;;;;12194362;29;20143;-85
2022/05/30 12:28:34;;;;;;;2.85;0.73;;;12.50;99.90;;;;;;12200192;29;20500;-85
2022/05/30 12:35:00;;;;;;;1.90;0.70;;;12.80;99.90;;;;;;12177523;29;20056;-84
2022/05/30 12:41:34;;;;;;;3.15;0.65;;;12.90;99.90;;;;;;12191351;29;20048;-84
2022/05/30 12:47:36;;;;;;;6.65;0.80;;;13.30;99.90;;;;;;12203992;29;20139;-84
2022/05/30 12:53:59;;;;;;;1.95;0.57;;;13.40;99.90;;;;;;12183803;29;20189;-85
2022/05/30 13:00:10;;;;;;;3.20;1.08;;;13.40;99.90;;;;;;12197818;29;20452;-85
2022/05/30 13:06:29;;;;;;;2.53;0.68;;;13.20;99.90;;;;;;12200213;29;20072;-84
2022/05/30 13:12:52;;;;;;;1.42;0.55;;;13.20;99.90;;;;;;12203449;29;20143;-85
2022/05/30 13:18:55;;;;;;;4.47;0.63;;;13.10;99.90;;;;;;12195111;29;20054;-84
2022/05/30 13:24:58;;;;;;;5.03;0.68;;;13.30;99.90;;;;;;12200886;29;20524;-84
2022/05/30 13:31:03;;;;;;;2.10;0.82;;;13.30;99.90;;;;;;12203837;29;20095;-85
2022/05/30 13:37:05;;;;;;;3.85;0.70;;;13.30;99.90;;;;;;12184512;29;20084;-84
2022/05/30 13:43:14;;;;;;;2.00;0.60;;;13.50;99.90;;;;;;12190027;29;20397;-85
2022/05/30 13:49:40;;;;;;;1.58;0.50;;;13.60;99.90;;;;;;12179867;29;1065929;-84
2022/05/30 13:55:58;;;;;;;5.10;1.02;;;13.90;99.90;;;;;;12188005;29;20523;-84
2022/05/30 14:02:09;;;;;;;1.83;0.45;;;14.10;99.90;;;;;;12216552;29;20114;-84
2022/05/30 14:08:17;;;;;;;2.38;0.50;;;14.10;99.90;;;;;;12187134;29;20060;-85
2022/05/30 14:14:40;;;;;;;1.45;0.45;;;13.90;99.90;;;;;;12201799;29;20111;-86
2022/05/30 14:20:46;;;;;;;2.83;0.45;;;13.90;99.90;;;;;;12207886;29;20096;-86
2022/05/30 14:26:48;;;;;;;2.58;0.60;;;13.70;99.90;;;;;;12184277;29;20091;-84
2022/05/30 14:33:24;;;;;;;3.03;0.80;;;13.60;99.90;;;;;;12196298;29;20082;-85
2022/05/30 14:39:26;;;;;;;2.47;0.77;;;13.50;99.90;;;;;;12175280;29;20584;-86
2022/05/30 14:45:30;;;;;;;5.18;0.75;;;13.60;99.90;;;;;;12186885;29;20541;-85
2022/05/30 14:51:47;;;;;;;3.95;1.17;;;13.70;99.90;;;;;;12189000;29;20534;-86
2022/05/30 14:57:53;;;;;;;3.90;0.80;;;13.80;99.90;;;;;;12184037;29;20188;-86
2022/05/30 15:04:12;;;;;;;4.68;0.68;;;13.90;99.90;;;;;;12172238;29;20063;-84
2022/05/30 15:10:20;;;;;;;4.30;0.90;;;14.10;99.90;;;;;;12181386;29;20061;-85
2022/05/30 15:16:24;;;;;;;3.00;0.80;;;14.40;99.90;;;;;;12189175;29;20083;-87
2022/05/30 15:22:27;;;;;;;2.63;0.70;;;14.90;99.90;;;;;;12176965;29;20507;-85
2022/05/30 15:28:29;;;;;;;1.48;0.40;;;14.90;99.90;;;;;;12180106;29;20056;-85
2022/05/30 15:34:32;;;;;;;4.25;0.68;;;14.60;99.90;;;;;;12200279;29;20089;-86
2022/05/30 15:40:35;;;;;;;1.27;0.50;;;14.30;99.90;;;;;;12197764;29;20133;-86
2022/05/30 15:46:52;;;;;;;2.08;0.60;;;13.80;99.90;;;;;;12199122;29;20048;-87
2022/05/30 15:59:17;;;;;;;2.55;0.40;;;13.30;99.90;;;;;;12191121;29;20052;-87
2022/05/30 16:05:19;;;;;;;1.35;0.50;;;13.20;99.90;;;;;;12192620;29;20576;-85
2022/05/30 16:11:22;;;;;;;3.25;0.60;;;13.10;99.90;;;;;;12186827;29;20060;-87
2022/05/30 16:17:24;;;;;;;3.47;1.02;;;13.20;99.90;;;;;;12204243;29;20060;-85
2022/05/30 16:23:27;;;;;;;1.40;0.60;;;13.20;99.90;;;;;;12182470;29;20421;-85
2022/05/30 16:29:29;;;;;;;2.17;0.70;;;13.50;99.90;;;;;;12188899;29;20060;-86
2022/05/30 16:35:31;;;;;;;3.67;0.63;;;13.90;99.90;;;;;;12201534;29;20056;-87
2022/05/30 16:41:33;;;;;;;1.27;0.60;;;14.00;99.90;;;;;;12192532;29;20401;-86
2022/05/30 16:47:35;;;;;;;4.32;1.02;;;13.80;99.90;;;;;;12202971;29;20127;-86
2022/05/30 16:53:37;;;;;;;2.25;0.80;;;13.70;99.90;;;;;;12189873;29;20056;-86
2022/05/30 16:59:39;;;;;;;3.78;0.75;;;13.60;99.90;;;;;;12201654;29;20199;-85
2022/05/30 17:05:44;;;;;;;1.42;0.60;;;13.90;99.90;;;;;;12191505;29;20076;-86
2022/05/30 17:11:47;;;;;;;1.00;0.55;;;14.00;99.90;;;;;;12189709;29;20051;-86
2022/05/30 17:17:50;;;;;;;2.13;0.70;;;14.30;99.90;;;;;;12184959;29;20052;-87
2022/05/30 17:23:52;;;;;;;2.42;0.77;;;14.30;99.90;;;;;;12194621;29;20061;-85
2022/05/30 17:29:54;;;;;;;1.83;0.60;;;14.30;99.90;;;;;;12186015;29;20060;-86
2022/05/30 17:35:56;;;;;;;2.03;0.80;;;14.10;99.90;;;;;;12195608;29;20048;-85
2022/05/30 17:41:59;;;;;;;2.08;0.75;;;14.30;99.90;;;;;;12206111;29;20056;-85
2022/05/30 17:48:11;;;;;;;2.75;0.80;;;14.40;99.90;;;;;;12196016;29;20500;-86
2022/05/30 17:54:13;;;;;;;1.40;0.50;;;14.70;99.90;;;;;;12180605;29;20532;-85
2022/05/30 18:00:18;;;;;;;2.53;0.80;;;14.80;99.90;;;;;;12169069;29;20139;-85
2022/05/30 18:06:50;;;;;;;3.05;0.75;;;14.90;99.90;;;;;;12185086;29;20064;-85
2022/05/30 18:13:01;;;;;;;2.92;0.80;;;14.50;99.90;;;;;;12178705;29;20111;-86
2022/05/30 18:25:38;;;;;;;1.48;0.70;;;13.50;99.90;;;;;;12211060;29;20048;-86
2022/05/30 18:31:46;;;;;;;2.78;0.60;;;13.50;99.90;;;;;;12194647;29;20064;-85
2022/05/30 18:38:30;;;;;;;3.42;0.63;;;13.50;99.90;;;;;;12174313;29;20053;-86
2022/05/30 18:44:35;;;;;;;1.90;0.50;;;13.20;99.90;;;;;;12195936;29;20142;-85
2022/05/30 18:50:40;;;;;;;1.80;0.60;;;13.20;99.90;;;;;;12198102;29;20083;-86
2022/05/30 18:56:42;;;;;;;2.72;0.50;;;13.10;99.90;;;;;;12181561;29;20094;-86
2022/05/30 19:02:46;;;;;;;3.45;0.90;;;13.00;99.90;;;;;;12182836;29;20492;-85
2022/05/30 19:08:48;;;;;;;5.50;0.90;;;12.80;99.90;;;;;;12188291;29;20500;-86
2022/05/30 19:21:21;;;;;;;1.13;0.60;;;12.80;99.90;;;;;;12189311;29;20888;-86
2022/05/30 19:27:25;;;;;;;2.58;0.80;;;12.90;99.90;;;;;;12199721;29;20120;-86
2022/05/30 19:33:27;;;;;;;2.80;0.73;;;12.70;99.90;;;;;;12191683;29;20057;-85
2022/05/30 19:39:29;;;;;;;1.58;0.70;;;12.60;99.90;;;;;;12193906;29;20049;-86
2022/05/30 19:45:33;;;;;;;2.50;0.73;;;12.40;99.90;;;;;;12194147;29;20164;-86
2022/05/30 19:51:36;;;;;;;2.15;0.85;;;12.20;99.90;;;;;;12164747;29;20067;-84
2022/05/30 19:57:39;;;;;;;3.63;1.33;;;12.00;99.90;;;;;;12183342;29;20552;-84
2022/05/30 20:03:41;;;;;;;1.97;0.90;;;11.80;99.90;;;;;;12200657;29;20151;-84
2022/05/30 20:09:43;;;;;;;3.47;1.00;;;11.70;99.90;;;;;;12188481;29;20388;-84
2022/05/30 20:15:45;;;;;;;3.15;1.33;;;11.70;99.90;;;;;;12195046;29;20048;-84
2022/05/30 20:21:49;;;;;;;4.57;0.82;;;11.60;99.90;;;;;;12185327;29;20090;-84
2022/05/30 20:27:51;;;;;;;5.60;1.15;;;11.40;99.90;;;;;;12181556;29;20059;-85
2022/05/30 20:33:52;;;;;;;2.47;0.80;;;11.30;99.90;;;;;;12176861;29;20561;-85
2022/05/30 20:39:54;;;;;;;2.10;0.80;;;11.20;99.90;;;;;;12185446;29;20845;-84
2022/05/30 20:45:57;;;;;;;1.77;0.80;;;11.10;99.90;;;;;;12192144;29;20063;-85
2022/05/30 20:51:59;;;;;;;2.42;0.80;;;11.00;99.90;;;;;;12175011;29;20412;-84
2022/05/30 20:58:01;;;;;;;3.80;0.95;;;10.90;99.90;;;;;;12190850;29;20111;-85
2022/05/30 21:04:03;;;;;;;1.77;0.70;;;10.80;99.90;;;;;;12194809;29;20138;-83
2022/05/30 21:10:06;;;;;;;5.45;0.90;;;10.80;99.90;;;;;;12205551;29;20059;-84
2022/05/30 21:16:23;;;;;;;3.40;0.73;;;10.60;99.90;;;;;;12186267;29;20048;-83
2022/05/30 21:22:26;;;;;;;3.72;0.98;;;10.60;99.90;;;;;;12205473;29;20460;-83
2022/05/30 21:28:28;;;;;;;2.05;0.73;;;10.60;99.90;;;;;;12179196;29;20139;-84
2022/05/30 21:34:34;;;;;;;2.58;1.17;;;10.40;99.90;;;;;;12201985;29;20118;-83
2022/05/30 21:40:36;;;;;;;4.07;0.82;;;10.60;99.90;;;;;;12194677;29;20075;-84
2022/05/30 21:46:38;;;;;;;4.00;0.90;;;10.50;99.90;;;;;;12197433;28;20122;-83
2022/05/30 21:52:40;;;;;;;2.13;0.80;;;10.40;99.90;;;;;;12201416;29;20060;-84
2022/05/30 21:58:42;;;;;;;2.20;0.90;;;10.20;99.90;;;;;;12193525;29;20159;-83
2022/05/30 22:04:44;;;;;;;3.83;0.90;;;10.30;99.90;;;;;;12178043;29;20079;-84
2022/05/30 22:10:46;;;;;;;2.08;0.77;;;10.30;99.90;;;;;;12174930;29;20186;-84
2022/05/30 22:16:48;;;;;;;4.65;0.82;;;10.50;99.90;;;;;;12184265;29;20059;-84
2022/05/30 22:22:52;;;;;;;2.40;0.90;;;10.40;99.90;;;;;;12195809;29;20063;-83
2022/05/30 22:28:54;;;;;;;2.33;0.70;;;10.30;99.90;;;;;;12192982;29;20058;-84
2022/05/30 22:34:56;;;;;;;2.80;0.80;;;10.30;99.90;;;;;;12198593;29;20202;-84
2022/05/30 22:40:58;;;;;;;3.65;0.80;;;10.30;99.90;;;;;;12205154;29;20525;-83
2022/05/30 22:47:00;;;;;;;2.75;0.90;;;10.30;99.90;;;;;;12200423;29;20060;-83
2022/05/30 22:53:03;;;;;;;2.28;0.70;;;10.20;99.90;;;;;;12183610;29;20512;-83
2022/05/30 22:59:05;;;;;;;1.95;0.80;;;10.20;99.90;;;;;;12193959;29;20504;-83
2022/05/30 23:05:07;;;;;;;1.42;0.75;;;9.90;99.90;;;;;;12202071;29;20089;-84
2022/05/30 23:11:25;;;;;;;1.02;0.70;;;9.90;99.90;;;;;;12186000;29;20064;-84
2022/05/30 23:17:27;;;;;;;3.75;1.00;;;9.90;99.90;;;;;;12192960;29;20059;-84
2022/05/30 23:23:29;;;;;;;2.38;1.00;;;9.90;99.90;;;;;;12194533;29;20396;-84
2022/05/30 23:29:32;;;;;;;3.78;1.10;;;10.00;99.90;;;;;;12174352;29;20064;-83
2022/05/30 23:35:34;;;;;;;3.47;1.10;;;10.00;99.90;;;;;;12190341;29;20135;-83
2022/05/30 23:47:57;;;;;;;1.42;0.77;;;10.00;99.90;;;;;;12195747;29;20589;-84
2022/05/30 23:53:59;;;;;;;6.40;1.20;;;9.90;99.90;;;;;;12163178;29;20165;-83
